Terminal Aerodrome Forecast
Issued by NWS

Home | Current Version | Previous Version | Text Only | Print | Product List | Glossary Off
Versions: 1 2 3 4 5 6 7 8 9 10 11 12 13 14 15 16 17 18 19

376
FTUS43 KMPX 261736
TAFAXN
TAF
KAXN 261736Z 2618/2718 35010G18KT P6SM SCT040
     FM270600 02003KT P6SM SKC
     FM271400 01006KT P6SM SCT050=

USA.gov is the U.S. government's official web portal to all federal, state and local government web resources and services.